TimeEDT,TemperatureF,Dew PointF,Humidity,Sea Level PressureIn,VisibilityMPH,Wind Direction,Wind SpeedMPH,Gust SpeedMPH,PrecipitationIn,Events,Conditions,WindDirDegrees,DateUTC
1:52 AM,46.9,44.1,90,30.13,10.0,Calm,Calm,-,N/A,,Clear,0,2012-10-27 05:52:00
2:52 AM,46.0,44.1,93,30.12,10.0,Calm,Calm,-,N/A,,Clear,0,2012-10-27 06:52:00
3:52 AM,46.0,44.1,93,30.10,10.0,Calm,Calm,-,N/A,,Clear,0,2012-10-27 07:52:00
4:52 AM,46.0,43.0,89,30.09,10.0,Calm,Calm,-,N/A,,Clear,0,2012-10-27 08:52:00
5:52 AM,46.0,44.1,93,30.08,10.0,Calm,Calm,-,N/A,,Clear,0,2012-10-27 09:52:00
6:52 AM,46.0,44.1,93,30.07,10.0,Calm,Calm,-,N/A,,Clear,0,2012-10-27 10:52:00
7:52 AM,48.9,48.0,97,30.08,10.0,Calm,Calm,-,N/A,,Clear,0,2012-10-27 11:52:00
8:52 AM,57.0,50.0,77,30.10,10.0,East,3.5,-,N/A,,Clear,90,2012-10-27 12:52:00
9:52 AM,60.1,42.1,51,30.08,10.0,East,4.6,-,N/A,,Clear,90,2012-10-27 13:52:00
11:52 AM,62.1,43.0,50,30.06,10.0,Variable,6.9,-,N/A,,Clear,0,2012-10-27 15:52:00
12:52 PM,61.0,41.0,48,30.06,10.0,ENE,6.9,-,N/A,,Clear,70,2012-10-27 16:52:00
1:52 PM,61.0,45.0,56,30.04,10.0,ENE,8.1,-,N/A,,Clear,60,2012-10-27 17:52:00
2:52 PM,60.1,46.0,60,30.02,10.0,NE,6.9,-,N/A,,Clear,50,2012-10-27 18:52:00
3:52 PM,59.0,48.9,69,30.02,10.0,NE,8.1,-,N/A,,Clear,40,2012-10-27 19:52:00
4:52 PM,57.9,51.1,78,30.02,10.0,NE,6.9,-,N/A,,Clear,40,2012-10-27 20:52:00
5:52 PM,57.0,53.1,87,30.02,10.0,NNE,4.6,-,N/A,,Clear,30,2012-10-27 21:52:00
6:52 PM,55.9,52.0,87,30.01,10.0,NE,6.9,-,N/A,,Clear,40,2012-10-27 22:52:00
7:52 PM,55.9,51.1,84,30.02,10.0,NE,9.2,-,N/A,,Clear,50,2012-10-27 23:52:00
8:52 PM,55.9,50.0,80,30.01,10.0,NE,9.2,-,N/A,,Clear,50,2012-10-28 00:52:00
9:52 PM,55.9,46.9,72,30.01,10.0,ENE,11.5,-,N/A,,Clear,60,2012-10-28 01:52:00
10:52 PM,55.9,50.0,80,30.00,10.0,ENE,12.7,-,N/A,,Partly Cloudy,70,2012-10-28 02:52:00
11:11 PM,55.4,50.0,82,29.99,10.0,ENE,11.5,18.4,N/A,,Mostly Cloudy,70,2012-10-28 03:11:00
11:52 PM,55.9,50.0,80,29.99,10.0,ENE,15.0,-,N/A,,Overcast,70,2012-10-28 03:52:00